createdAt,value
2023-05-05T00:00:38.945Z,16.62
2023-05-05T00:03:43.325Z,16.63
2023-05-05T00:06:46.229Z,16.62
2023-05-05T00:09:48.933Z,16.61
2023-05-05T00:12:51.466Z,16.60
2023-05-05T00:15:54.362Z,16.60
2023-05-05T00:18:58.282Z,16.59
2023-05-05T00:22:00.817Z,16.57
2023-05-05T00:25:04.827Z,16.59
2023-05-05T00:28:07.354Z,16.59
2023-05-05T00:31:09.875Z,16.60
2023-05-05T00:34:13.802Z,16.61
2023-05-05T00:37:16.589Z,16.58
2023-05-05T00:40:19.329Z,16.55
2023-05-05T00:43:21.910Z,16.51
2023-05-05T00:46:25.659Z,16.45
2023-05-05T00:49:29.564Z,16.43
2023-05-05T00:52:32.266Z,16.38
2023-05-05T00:55:35.315Z,16.23
2023-05-05T00:58:37.904Z,16.09
2023-05-05T01:01:40.562Z,16.02
2023-05-05T01:04:44.540Z,15.97
2023-05-05T01:07:53.884Z,15.96
2023-05-05T01:11:00.484Z,15.94
2023-05-05T01:14:06.924Z,15.88
2023-05-05T01:17:14.690Z,15.76
2023-05-05T01:20:22.027Z,15.70
2023-05-05T01:23:38.239Z,15.65
2023-05-05T01:26:53.799Z,15.65
2023-05-05T01:30:04.222Z,15.66
2023-05-05T01:33:10.222Z,15.65
2023-05-05T01:36:14.313Z,15.63
2023-05-05T01:39:17.084Z,15.62
2023-05-05T01:42:19.601Z,15.60
2023-05-05T01:45:25.744Z,15.56
2023-05-05T01:48:29.913Z,15.47
2023-05-05T01:51:32.913Z,15.42
2023-05-05T01:54:35.425Z,15.37
2023-05-05T01:57:38.049Z,15.35
2023-05-05T02:00:40.578Z,15.26
2023-05-05T02:03:44.477Z,15.22
2023-05-05T02:06:47.530Z,15.16
2023-05-05T02:09:50.143Z,15.14
2023-05-05T02:12:52.797Z,15.08
2023-05-05T02:15:55.419Z,15.05
2023-05-05T02:18:59.550Z,15.01
2023-05-05T02:22:02.126Z,14.93
2023-05-05T02:25:05.171Z,14.86
2023-05-05T02:28:09.187Z,14.76
2023-05-05T02:31:11.752Z,14.67
2023-05-05T02:34:17.196Z,14.57
2023-05-05T02:37:24.054Z,14.51
2023-05-05T02:40:27.555Z,14.48
2023-05-05T02:43:30.429Z,14.45
2023-05-05T02:46:33.043Z,14.40
2023-05-05T02:49:37.374Z,14.38
2023-05-05T02:52:40.006Z,14.36
2023-05-05T02:55:45.186Z,14.36
2023-05-05T02:58:53.183Z,14.32
2023-05-05T03:02:00.789Z,14.26
2023-05-05T03:05:07.635Z,14.22
2023-05-05T03:08:11.712Z,14.21
2023-05-05T03:11:17.045Z,14.17
2023-05-05T03:14:21.080Z,14.13
2023-05-05T03:17:23.678Z,14.09
2023-05-05T03:20:27.571Z,14.07
2023-05-05T03:23:30.170Z,14.06
2023-05-05T03:26:32.734Z,14.05
2023-05-05T03:29:35.356Z,14.01
2023-05-05T03:32:38.045Z,13.97
2023-05-05T03:35:41.985Z,13.95
2023-05-05T03:38:44.501Z,13.92
2023-05-05T03:41:47.002Z,13.89
2023-05-05T03:44:49.559Z,13.89
2023-05-05T03:47:52.218Z,13.88
2023-05-05T03:50:56.376Z,13.84
2023-05-05T03:53:58.934Z,13.79
2023-05-05T03:57:02.341Z,13.73
2023-05-05T04:00:05.936Z,13.73
2023-05-05T04:03:08.825Z,13.71
2023-05-05T04:06:12.831Z,13.65
2023-05-05T04:09:15.519Z,13.60
2023-05-05T04:12:18.091Z,13.60
2023-05-05T04:15:20.678Z,13.55
2023-05-05T04:18:23.428Z,13.55
2023-05-05T04:21:27.359Z,13.55
2023-05-05T04:24:29.900Z,13.54
2023-05-05T04:27:32.460Z,13.56
2023-05-05T04:30:35.059Z,13.55
2023-05-05T04:33:37.613Z,13.55
2023-05-05T04:36:41.523Z,13.54
2023-05-05T04:39:44.034Z,13.57
2023-05-05T04:42:46.521Z,13.61
2023-05-05T04:45:55.309Z,13.72
2023-05-05T04:48:59.572Z,13.80
2023-05-05T04:52:03.633Z,13.96
2023-05-05T04:55:07.206Z,14.11
2023-05-05T04:58:09.742Z,14.29
2023-05-05T05:01:12.313Z,14.40
2023-05-05T05:04:18.336Z,14.50
2023-05-05T05:07:22.271Z,14.73
2023-05-05T05:10:24.844Z,14.91
2023-05-05T05:13:27.389Z,15.00
2023-05-05T05:16:30.091Z,14.97
2023-05-05T05:19:32.656Z,14.80
2023-05-05T05:22:38.297Z,14.65
2023-05-05T05:25:40.864Z,14.52
2023-05-05T05:28:43.423Z,14.45
2023-05-05T05:31:45.969Z,14.41
2023-05-05T05:34:48.533Z,14.42
2023-05-05T05:37:52.743Z,14.46
2023-05-05T05:40:55.350Z,14.52
2023-05-05T05:43:57.962Z,14.57
2023-05-05T05:47:00.506Z,14.63
2023-05-05T05:50:04.745Z,14.69
2023-05-05T05:53:08.657Z,14.79
2023-05-05T05:56:11.283Z,14.83
2023-05-05T05:59:13.822Z,14.91
2023-05-05T06:02:16.384Z,14.97
2023-05-05T06:05:19.066Z,14.98
2023-05-05T06:08:24.982Z,15.02
2023-05-05T06:11:27.702Z,15.05
2023-05-05T06:14:30.246Z,15.08
2023-05-05T06:17:32.776Z,15.18
2023-05-05T06:20:35.349Z,15.23
2023-05-05T06:23:39.281Z,15.34
2023-05-05T06:26:42.745Z,15.49
2023-05-05T06:29:45.265Z,15.59
2023-05-05T06:32:47.887Z,15.65
2023-05-05T06:35:52.243Z,15.74
2023-05-05T06:38:56.125Z,15.80
2023-05-05T06:41:58.683Z,15.83
2023-05-05T06:45:01.417Z,15.82
2023-05-05T06:48:04.012Z,15.82
2023-05-05T06:51:06.620Z,15.77
2023-05-05T06:54:10.693Z,15.74
2023-05-05T06:57:13.192Z,15.73
2023-05-05T07:00:17.371Z,15.78
2023-05-05T07:03:19.984Z,15.76
2023-05-05T07:06:22.797Z,15.79
2023-05-05T07:09:26.703Z,15.80
2023-05-05T07:12:30.133Z,15.88
2023-05-05T07:15:32.740Z,15.98
2023-05-05T07:18:35.344Z,16.07
2023-05-05T07:21:39.556Z,16.17
2023-05-05T07:24:43.465Z,16.26
2023-05-05T07:27:46.004Z,16.33
2023-05-05T07:30:48.567Z,16.35
2023-05-05T07:33:51.076Z,16.40
2023-05-05T07:36:56.221Z,16.41
2023-05-05T07:40:00.069Z,16.43
2023-05-05T07:43:02.600Z,16.39
2023-05-05T07:46:05.183Z,16.36
2023-05-05T07:49:07.769Z,16.34
2023-05-05T07:52:10.331Z,16.38
2023-05-05T07:55:14.261Z,16.39
2023-05-05T07:58:17.020Z,16.44
2023-05-05T08:01:20.126Z,16.40
2023-05-05T08:04:22.791Z,16.41
2023-05-05T08:07:25.477Z,16.47
2023-05-05T08:10:29.340Z,16.48
2023-05-05T08:13:31.914Z,16.44
2023-05-05T08:16:34.785Z,16.50
2023-05-05T08:19:37.334Z,16.58
2023-05-05T08:22:39.915Z,16.63
2023-05-05T08:25:44.387Z,16.60
2023-05-05T08:28:48.558Z,16.58
2023-05-05T08:31:51.084Z,16.60
2023-05-05T08:34:53.739Z,16.51
2023-05-05T08:37:58.787Z,16.41
2023-05-05T08:41:03.888Z,16.34
2023-05-05T08:44:06.539Z,16.29
2023-05-05T08:47:09.290Z,16.26
2023-05-05T08:50:12.518Z,16.27
2023-05-05T08:53:17.367Z,16.31
2023-05-05T08:56:21.817Z,16.26
2023-05-05T08:59:25.142Z,16.18
2023-05-05T09:02:29.720Z,16.01
2023-05-05T09:05:32.284Z,15.87
2023-05-05T09:08:34.849Z,15.81
2023-05-05T09:11:38.798Z,15.82
2023-05-05T09:14:41.370Z,15.83
2023-05-05T09:17:44.062Z,15.83
2023-05-05T09:20:46.852Z,15.82
2023-05-05T09:24:08.089Z,15.84
2023-05-05T09:27:22.320Z,15.80
2023-05-05T09:30:25.872Z,15.81
2023-05-05T09:33:31.959Z,15.78
2023-05-05T09:36:44.772Z,15.74
2023-05-05T09:39:54.361Z,15.72
2023-05-05T09:43:03.017Z,15.79
2023-05-05T09:46:08.865Z,15.83
2023-05-05T09:49:15.436Z,15.86
2023-05-05T09:52:18.006Z,15.87
2023-05-05T09:55:20.605Z,15.88
2023-05-05T09:58:24.967Z,15.90
2023-05-05T10:01:27.593Z,15.92
2023-05-05T10:04:31.027Z,15.89
2023-05-05T10:07:33.699Z,15.90
2023-05-05T10:10:36.236Z,15.94
2023-05-05T10:13:41.800Z,16.02
2023-05-05T10:16:48.226Z,16.12
2023-05-05T10:19:51.088Z,16.19
2023-05-05T10:22:53.746Z,16.24
2023-05-05T10:26:01.660Z,16.30
2023-05-05T10:29:05.722Z,16.35
2023-05-05T10:32:40.787Z,16.35
2023-05-05T10:35:36.471Z,16.37
2023-05-05T10:38:38.966Z,16.38
2023-05-05T10:41:41.596Z,16.36
2023-05-05T10:44:45.485Z,16.37
2023-05-05T10:47:48.128Z,16.38
2023-05-05T10:50:52.496Z,16.39
2023-05-05T10:53:57.910Z,16.34
2023-05-05T10:57:02.561Z,16.27
2023-05-05T11:00:08.533Z,16.23
2023-05-05T11:03:21.733Z,16.07
2023-05-05T11:06:24.319Z,15.90
2023-05-05T11:09:29.957Z,15.80
2023-05-05T11:12:32.945Z,15.69
2023-05-05T11:15:40.411Z,15.61
2023-05-05T11:18:44.431Z,15.56
2023-05-05T11:22:00.662Z,15.53
2023-05-05T11:25:20.657Z,15.47
2023-05-05T11:28:25.446Z,15.34
2023-05-05T11:31:30.513Z,15.25
2023-05-05T11:34:33.232Z,15.05
2023-05-05T11:37:35.745Z,14.81
2023-05-05T11:40:38.298Z,14.70
2023-05-05T11:43:41.217Z,14.62
2023-05-05T11:47:29.079Z,14.47
2023-05-05T11:50:33.179Z,14.30
2023-05-05T11:53:35.734Z,14.16
2023-05-05T11:56:38.284Z,14.08
2023-05-05T11:59:50.619Z,14.03
2023-05-05T12:02:58.850Z,13.90
2023-05-05T12:06:01.479Z,13.81
2023-05-05T12:09:04.964Z,13.76
2023-05-05T12:12:08.028Z,13.76
2023-05-05T12:15:11.789Z,13.82
2023-05-05T12:18:20.569Z,13.93
2023-05-05T12:21:23.228Z,14.02
2023-05-05T12:24:25.740Z,14.11
2023-05-05T12:27:28.939Z,14.08
2023-05-05T12:30:31.583Z,14.08
2023-05-05T12:33:40.609Z,14.19
2023-05-05T12:36:43.209Z,14.18
2023-05-05T12:39:46.056Z,14.05
2023-05-05T12:42:49.112Z,13.91
2023-05-05T12:46:00.454Z,13.82
2023-05-05T12:49:05.561Z,13.68
2023-05-05T12:52:09.854Z,13.65
2023-05-05T12:55:12.638Z,13.54
2023-05-05T12:58:15.200Z,13.51
2023-05-05T13:01:17.766Z,13.45
2023-05-05T13:04:22.788Z,13.40
2023-05-05T13:07:25.369Z,13.31
2023-05-05T13:10:28.176Z,13.31
2023-05-05T13:13:32.979Z,13.29
2023-05-05T13:16:35.925Z,13.23
2023-05-05T13:19:45.813Z,13.16
2023-05-05T13:22:48.336Z,13.12
2023-05-05T13:25:50.921Z,13.08
2023-05-05T13:28:53.476Z,13.10
2023-05-05T13:31:55.997Z,13.14
2023-05-05T13:34:59.882Z,13.17
2023-05-05T13:38:02.436Z,13.21
2023-05-05T13:41:05.010Z,13.27
2023-05-05T13:44:07.573Z,13.32
2023-05-05T13:47:10.171Z,13.37
2023-05-05T13:50:14.124Z,13.40
2023-05-05T13:53:16.755Z,13.51
2023-05-05T13:56:19.468Z,13.48
2023-05-05T13:59:22.060Z,13.46
2023-05-05T14:02:24.850Z,13.52
2023-05-05T14:05:28.884Z,13.51
2023-05-05T14:08:31.451Z,13.54
2023-05-05T14:11:34.008Z,13.60
2023-05-05T14:14:37.055Z,13.61
2023-05-05T14:17:39.673Z,13.62
2023-05-05T14:20:43.651Z,13.64
2023-05-05T14:23:46.197Z,13.78
2023-05-05T14:26:49.143Z,13.99
2023-05-05T14:29:51.702Z,14.17
2023-05-05T14:32:54.292Z,14.32
2023-05-05T14:35:58.175Z,14.34
2023-05-05T14:39:00.752Z,14.37
2023-05-05T14:42:03.345Z,14.43
2023-05-05T14:45:07.119Z,14.48
2023-05-05T14:48:09.966Z,14.62
2023-05-05T14:51:14.666Z,14.74
2023-05-05T14:54:27.323Z,14.86
2023-05-05T14:57:31.425Z,14.92
2023-05-05T15:00:33.986Z,14.97
2023-05-05T15:03:36.686Z,14.97
2023-05-05T15:06:40.600Z,15.05
2023-05-05T15:09:43.181Z,15.17
2023-05-05T15:12:45.768Z,15.35
2023-05-05T15:15:48.816Z,15.55
2023-05-05T15:18:51.421Z,15.73
2023-05-05T15:21:55.432Z,15.83
2023-05-05T15:24:58.015Z,15.76
2023-05-05T15:28:00.859Z,15.72
2023-05-05T15:31:03.506Z,15.67
2023-05-05T15:34:06.016Z,15.66
2023-05-05T15:37:09.972Z,15.69
2023-05-05T15:40:13.017Z,15.77
2023-05-05T15:43:15.595Z,15.78
2023-05-05T15:46:18.158Z,15.79
2023-05-05T15:49:20.675Z,15.79
2023-05-05T15:52:24.554Z,15.79
2023-05-05T15:55:27.290Z,15.73
2023-05-05T15:58:29.837Z,15.65
2023-05-05T16:01:33.400Z,15.59
2023-05-05T16:04:36.004Z,15.62
2023-05-05T16:07:39.872Z,15.74
2023-05-05T16:10:42.411Z,15.87
2023-05-05T16:13:45.070Z,15.94
2023-05-05T16:16:47.679Z,15.87
2023-05-05T16:19:50.370Z,15.80
2023-05-05T16:22:54.284Z,15.78
2023-05-05T16:25:56.998Z,15.73
2023-05-05T16:28:59.572Z,15.72
2023-05-05T16:32:02.149Z,15.66
2023-05-05T16:35:07.089Z,15.62
2023-05-05T16:38:11.446Z,15.67
2023-05-05T16:41:14.021Z,15.78
2023-05-05T16:44:16.690Z,15.88
2023-05-05T16:47:19.201Z,15.94
2023-05-05T16:50:21.764Z,15.97
2023-05-05T16:53:25.664Z,15.95
2023-05-05T16:56:28.199Z,15.87
2023-05-05T16:59:31.726Z,15.87
2023-05-05T17:02:35.214Z,15.86
2023-05-05T17:05:37.798Z,15.84
2023-05-05T17:08:41.756Z,15.83
2023-05-05T17:11:44.264Z,15.83
2023-05-05T17:14:46.925Z,15.86
2023-05-05T17:17:49.559Z,15.93
2023-05-05T17:20:52.227Z,15.98
2023-05-05T17:23:56.104Z,16.03
2023-05-05T17:26:59.488Z,16.03
2023-05-05T17:30:02.000Z,15.98
2023-05-05T17:33:04.604Z,15.94
2023-05-05T17:36:07.968Z,15.91
2023-05-05T17:39:12.226Z,15.89
2023-05-05T17:42:16.500Z,15.86
2023-05-05T17:45:19.259Z,15.81
2023-05-05T17:48:21.845Z,15.74
2023-05-05T17:51:24.577Z,15.67
2023-05-05T17:54:28.485Z,15.60
2023-05-05T17:57:31.111Z,15.54
2023-05-05T18:00:33.682Z,15.46
2023-05-05T18:03:37.277Z,15.41
2023-05-05T18:06:41.783Z,15.38
2023-05-05T18:09:45.692Z,15.32
2023-05-05T18:12:48.320Z,15.27
2023-05-05T18:15:50.898Z,15.24
2023-05-05T18:18:53.438Z,15.22
2023-05-05T18:21:55.957Z,15.17
2023-05-05T18:24:59.796Z,15.16
2023-05-05T18:28:02.379Z,15.15
2023-05-05T18:31:05.026Z,15.07
2023-05-05T18:34:07.629Z,15.07
2023-05-05T18:37:10.180Z,15.07
2023-05-05T18:40:14.712Z,15.07
2023-05-05T18:43:17.305Z,15.09
2023-05-05T18:46:19.990Z,15.08
2023-05-05T18:49:23.168Z,15.07
2023-05-05T18:52:27.275Z,15.06
2023-05-05T18:55:31.131Z,15.06
2023-05-05T18:58:33.836Z,15.05
2023-05-05T19:01:36.381Z,15.04
2023-05-05T19:04:39.444Z,15.01
2023-05-05T19:07:41.978Z,14.97
2023-05-05T19:10:46.277Z,14.93
2023-05-05T19:13:48.942Z,14.89
2023-05-05T19:16:51.482Z,14.85
2023-05-05T19:19:53.985Z,14.84
2023-05-05T19:22:58.115Z,14.82
2023-05-05T19:26:03.426Z,14.80
2023-05-05T19:29:05.981Z,14.78
2023-05-05T19:32:08.657Z,14.74
2023-05-05T19:35:11.753Z,14.68
2023-05-05T19:38:14.610Z,14.64
2023-05-05T19:41:18.723Z,14.59
2023-05-05T19:44:22.440Z,14.58
2023-05-05T19:47:25.010Z,14.58
2023-05-05T19:50:27.688Z,14.55
2023-05-05T19:53:30.232Z,14.53
2023-05-05T19:56:34.135Z,14.50
2023-05-05T19:59:36.669Z,14.43
2023-05-05T20:02:39.341Z,14.37
2023-05-05T20:05:41.945Z,14.22
2023-05-05T20:08:44.479Z,14.10
2023-05-05T20:11:48.438Z,14.01
2023-05-05T20:14:50.974Z,13.96
2023-05-05T20:17:53.676Z,13.92
2023-05-05T20:20:56.226Z,13.81
2023-05-05T20:23:59.620Z,13.69
2023-05-05T20:27:05.179Z,13.67
2023-05-05T20:30:09.532Z,13.64
2023-05-05T20:33:12.402Z,13.59
2023-05-05T20:36:14.988Z,13.57
2023-05-05T20:39:17.562Z,13.53
2023-05-05T20:42:22.917Z,13.54
2023-05-05T20:45:25.439Z,13.53
2023-05-05T20:48:28.054Z,13.54
2023-05-05T20:51:34.076Z,13.57
2023-05-05T20:54:36.877Z,13.60
2023-05-05T20:57:40.764Z,13.61
2023-05-05T21:00:43.393Z,13.60
2023-05-05T21:03:46.063Z,13.56
2023-05-05T21:06:48.595Z,13.54
2023-05-05T21:09:51.101Z,13.54
2023-05-05T21:12:55.016Z,13.50
2023-05-05T21:15:57.598Z,13.37
2023-05-05T21:19:00.419Z,13.23
2023-05-05T21:22:03.005Z,13.15
2023-05-05T21:25:12.260Z,13.11
2023-05-05T21:28:16.305Z,13.08
2023-05-05T21:31:22.153Z,13.05
2023-05-05T21:34:25.042Z,13.01
2023-05-05T21:37:27.645Z,12.98
2023-05-05T21:40:30.324Z,12.97
2023-05-05T21:43:34.198Z,12.98
2023-05-05T21:46:36.744Z,12.99
2023-05-05T21:49:39.420Z,12.98
2023-05-05T21:52:41.980Z,12.99
2023-05-05T21:55:44.601Z,13.01
2023-05-05T21:58:48.517Z,13.00
2023-05-05T22:01:51.177Z,12.96
2023-05-05T22:04:53.810Z,12.97
2023-05-05T22:07:56.380Z,12.97
2023-05-05T22:10:58.975Z,12.93
2023-05-05T22:14:02.904Z,12.95
2023-05-05T22:17:05.470Z,12.94
2023-05-05T22:20:09.684Z,12.92
2023-05-05T22:23:13.961Z,12.91
2023-05-05T22:26:16.575Z,12.90
2023-05-05T22:29:20.467Z,12.91
2023-05-05T22:32:23.040Z,12.92
2023-05-05T22:35:25.641Z,12.87
2023-05-05T22:38:28.215Z,12.84
2023-05-05T22:41:30.711Z,12.72
2023-05-05T22:44:34.609Z,12.65
2023-05-05T22:47:37.311Z,12.59
2023-05-05T22:50:39.854Z,12.61
2023-05-05T22:53:42.372Z,12.60
2023-05-05T22:56:44.896Z,12.63
2023-05-05T22:59:48.760Z,12.65
2023-05-05T23:02:51.471Z,12.66
2023-05-05T23:05:54.235Z,12.70
2023-05-05T23:08:56.806Z,12.73
2023-05-05T23:11:59.295Z,12.74
2023-05-05T23:15:03.234Z,12.74
2023-05-05T23:18:05.791Z,12.74
2023-05-05T23:21:08.398Z,12.70
2023-05-05T23:24:10.912Z,12.64
2023-05-05T23:27:13.460Z,12.63
2023-05-05T23:30:17.566Z,12.59
2023-05-05T23:33:20.226Z,12.59
2023-05-05T23:36:22.786Z,12.58
2023-05-05T23:39:25.290Z,12.57
2023-05-05T23:42:27.812Z,12.53
2023-05-05T23:45:31.717Z,12.50
2023-05-05T23:48:34.235Z,12.48
2023-05-05T23:51:36.768Z,12.47
2023-05-05T23:54:39.267Z,12.45
2023-05-05T23:57:41.780Z,12.43
